Time;durP1;ratioP1;P1;durP2;ratioP2;P2;SDS_P1;SDS_P2;PMS_P1;PMS_P2;Temp;Humidity;BMP_temperature;BMP_pressure;BME280_temperature;BME280_humidity;BME280_pressure;Samples;Min_cycle;Max_cycle;Signal;HPM_P1;HPM_P2
2023/07/21 00:01:09;;;;;;;2.30;1.20;;;25.30;51.90;;;;;;5106497;28;20190;-87
2023/07/21 00:03:36;;;;;;;1.20;1.10;;;25.30;51.90;;;;;;5103531;28;20297;-87
2023/07/21 00:06:06;;;;;;;1.20;1.10;;;25.30;52.00;;;;;;5112395;28;20516;-87
2023/07/21 00:08:36;;;;;;;1.30;1.20;;;25.30;51.90;;;;;;5105629;28;20182;-88
2023/07/21 00:11:02;;;;;;;1.60;1.20;;;25.30;52.00;;;;;;5104534;28;20189;-88
2023/07/21 00:13:29;;;;;;;1.30;1.20;;;25.30;52.00;;;;;;5105701;28;20202;-88
2023/07/21 00:15:55;;;;;;;1.53;1.43;;;25.30;52.00;;;;;;5101208;28;20267;-88
2023/07/21 00:18:22;;;;;;;1.90;1.23;;;25.30;52.00;;;;;;5105963;28;20559;-87
2023/07/21 00:20:49;;;;;;;1.30;1.20;;;25.30;52.00;;;;;;5101072;28;20178;-87
2023/07/21 00:23:17;;;;;;;1.57;1.20;;;25.20;52.00;;;;;;5104202;28;20221;-88
2023/07/21 00:25:45;;;;;;;1.27;1.17;;;25.20;52.00;;;;;;5104022;28;20170;-87
2023/07/21 00:28:11;;;;;;;1.30;1.10;;;25.20;52.10;;;;;;5104707;28;20186;-88
2023/07/21 00:30:37;;;;;;;1.20;1.10;;;25.20;52.10;;;;;;5102419;28;20179;-88
2023/07/21 00:33:04;;;;;;;1.20;1.10;;;25.20;52.10;;;;;;5103063;28;20537;-88
2023/07/21 00:35:29;;;;;;;1.10;1.00;;;25.20;52.10;;;;;;5103568;28;20201;-88
2023/07/21 00:38:00;;;;;;;2.27;1.27;;;25.20;52.10;;;;;;5114013;28;20540;-88
2023/07/21 00:40:26;;;;;;;1.50;1.40;;;25.20;52.10;;;;;;5105156;28;20181;-88
2023/07/21 00:42:51;;;;;;;1.30;1.20;;;25.10;52.10;;;;;;5109875;28;20206;-87
2023/07/21 00:45:17;;;;;;;1.27;1.10;;;25.10;52.10;;;;;;5112955;28;20166;-88
2023/07/21 00:47:44;;;;;;;1.50;1.13;;;25.10;52.20;;;;;;5104586;28;20580;-88
2023/07/21 00:50:12;;;;;;;2.13;1.27;;;25.10;52.20;;;;;;5102113;28;20290;-88
2023/07/21 00:52:38;;;;;;;1.33;1.23;;;25.10;52.20;;;;;;5099770;28;20295;-88
2023/07/21 00:55:05;;;;;;;1.10;1.00;;;25.10;52.20;;;;;;5101645;28;20609;-88
2023/07/21 00:57:32;;;;;;;1.37;1.27;;;25.10;52.20;;;;;;5104030;28;20333;-87
2023/07/21 00:59:59;;;;;;;2.33;1.23;;;25.10;52.20;;;;;;5103449;28;20200;-88
2023/07/21 01:02:25;;;;;;;1.40;1.10;;;25.10;52.20;;;;;;5101349;28;20304;-88
2023/07/21 01:04:51;;;;;;;1.73;1.20;;;25.00;52.20;;;;;;5105803;28;20294;-88
2023/07/21 01:07:18;;;;;;;1.63;1.10;;;25.00;52.20;;;;;;5100394;28;20186;-88
2023/07/21 01:09:45;;;;;;;1.23;1.13;;;25.10;52.20;;;;;;5107953;28;20182;-87
2023/07/21 01:12:12;;;;;;;1.23;1.13;;;25.10;52.20;;;;;;5109279;28;20174;-88
2023/07/21 01:14:38;;;;;;;1.20;1.10;;;25.00;52.20;;;;;;5106750;28;20285;-88
2023/07/21 01:17:07;;;;;;;1.47;1.20;;;25.00;52.20;;;;;;5105223;28;20190;-88
2023/07/21 01:19:36;;;;;;;1.13;1.03;;;25.00;52.20;;;;;;5104424;28;20209;-88
2023/07/21 01:22:20;;;;;;;1.20;1.10;;;25.00;52.20;;;;;;5102528;28;20427;-88
2023/07/21 01:24:49;;;;;;;1.40;1.23;;;24.90;52.60;;;;;;5103861;28;20190;-87
2023/07/21 01:27:22;;;;;;;2.40;1.20;;;24.90;52.30;;;;;;5102465;28;20185;-88
2023/07/21 01:29:50;;;;;;;1.30;1.10;;;24.90;52.30;;;;;;5108710;28;20277;-88
2023/07/21 01:32:22;;;;;;;1.10;1.00;;;24.90;52.30;;;;;;5103568;28;20170;-87
2023/07/21 01:34:50;;;;;;;2.17;1.30;;;24.90;52.30;;;;;;5103292;28;20178;-88
2023/07/21 01:37:17;;;;;;;1.10;1.10;;;24.90;52.30;;;;;;5105235;28;20487;-88
2023/07/21 01:39:44;;;;;;;1.10;1.00;;;24.90;52.30;;;;;;5100980;28;20178;-88
2023/07/21 01:42:11;;;;;;;1.37;1.27;;;24.90;52.30;;;;;;5097148;28;20199;-88
2023/07/21 01:44:37;;;;;;;1.30;1.20;;;24.90;52.30;;;;;;5104402;28;20178;-88
2023/07/21 01:47:05;;;;;;;1.13;1.03;;;24.90;52.40;;;;;;5101329;28;20193;-88
2023/07/21 01:49:31;;;;;;;1.20;1.10;;;24.90;52.40;;;;;;5107669;28;20170;-88
2023/07/21 01:51:57;;;;;;;1.00;1.00;;;24.90;52.40;;;;;;5100983;28;20191;-88
2023/07/21 01:54:44;;;;;;;1.03;0.97;;;24.80;52.40;;;;;;5103629;28;20189;-88
2023/07/21 01:57:14;;;;;;;1.13;1.00;;;24.80;52.40;;;;;;5104675;28;20261;-88
2023/07/21 01:59:45;;;;;;;1.90;1.20;;;24.80;52.40;;;;;;5075813;28;20504;-88
2023/07/21 02:02:12;;;;;;;1.20;1.10;;;24.80;52.40;;;;;;5099630;28;20206;-88
2023/07/21 02:04:38;;;;;;;1.23;1.10;;;24.80;52.40;;;;;;5099885;28;20179;-88
2023/07/21 02:07:05;;;;;;;1.10;1.10;;;24.80;52.40;;;;;;5104615;28;20171;-88
2023/07/21 02:09:31;;;;;;;1.43;1.17;;;24.80;52.40;;;;;;5102020;28;20171;-88
2023/07/21 02:11:57;;;;;;;1.17;1.07;;;24.80;52.40;;;;;;5106365;28;20208;-88
2023/07/21 02:14:23;;;;;;;1.20;1.10;;;24.70;52.40;;;;;;5102195;28;20419;-88
2023/07/21 02:16:50;;;;;;;1.67;1.00;;;24.70;52.40;;;;;;5105255;28;20185;-88
2023/07/21 02:19:15;;;;;;;1.20;1.10;;;24.70;52.40;;;;;;5102353;28;20579;-88
2023/07/21 02:21:41;;;;;;;1.33;1.00;;;24.70;52.40;;;;;;5106827;28;20270;-87
2023/07/21 02:24:07;;;;;;;1.20;1.10;;;24.70;52.40;;;;;;5108035;28;20182;-88
2023/07/21 02:26:33;;;;;;;1.20;1.10;;;24.70;52.50;;;;;;5109498;28;20236;-88
2023/07/21 02:28:59;;;;;;;1.30;1.20;;;24.70;52.50;;;;;;5104692;28;20182;-88
2023/07/21 02:31:24;;;;;;;1.53;1.30;;;24.70;52.40;;;;;;5104444;28;20170;-88
2023/07/21 02:33:50;;;;;;;1.40;1.23;;;24.70;52.40;;;;;;5104124;28;20217;-88
2023/07/21 02:36:16;;;;;;;1.03;0.93;;;24.60;52.40;;;;;;5108698;28;20201;-88
2023/07/21 02:38:42;;;;;;;2.90;1.00;;;24.60;52.40;;;;;;5105391;28;20479;-88
2023/07/21 02:41:09;;;;;;;1.17;1.07;;;24.60;52.50;;;;;;5109010;28;20462;-88
2023/07/21 02:43:35;;;;;;;1.20;1.10;;;24.60;52.50;;;;;;5101065;28;20177;-88
2023/07/21 02:46:01;;;;;;;1.33;0.97;;;24.60;52.50;;;;;;5106840;28;20182;-88
2023/07/21 02:48:26;;;;;;;1.53;1.20;;;24.60;52.50;;;;;;5117260;28;20175;-88
2023/07/21 02:50:55;;;;;;;1.20;1.10;;;24.60;52.50;;;;;;5102865;28;20242;-88
2023/07/21 02:53:21;;;;;;;1.23;1.10;;;24.60;52.50;;;;;;5105533;28;20174;-88
2023/07/21 02:55:47;;;;;;;2.03;1.00;;;24.50;52.50;;;;;;5109699;28;20185;-88
2023/07/21 02:58:15;;;;;;;1.07;1.00;;;24.60;52.50;;;;;;5104373;28;20185;-88
2023/07/21 03:00:41;;;;;;;1.07;0.87;;;24.60;52.50;;;;;;5109141;28;20292;-88
2023/07/21 03:03:12;;;;;;;2.47;1.30;;;24.50;52.50;;;;;;5106550;28;20287;-88
2023/07/21 03:05:37;;;;;;;1.20;1.10;;;24.50;52.50;;;;;;5101787;28;20182;-88
2023/07/21 03:08:04;;;;;;;1.00;1.00;;;24.50;52.50;;;;;;5103823;28;20178;-88
2023/07/21 03:10:30;;;;;;;1.27;1.17;;;24.50;52.50;;;;;;5108242;28;20455;-88
2023/07/21 03:12:55;;;;;;;1.30;1.20;;;24.50;52.50;;;;;;5113443;28;20182;-88
2023/07/21 03:15:21;;;;;;;1.20;1.10;;;24.50;52.50;;;;;;5104668;28;20236;-88
2023/07/21 03:17:47;;;;;;;1.20;1.10;;;24.50;52.50;;;;;;5106333;28;20170;-88
2023/07/21 03:20:14;;;;;;;2.47;1.17;;;24.50;52.50;;;;;;5103686;28;20259;-88
2023/07/21 03:22:43;;;;;;;1.30;1.20;;;24.50;52.50;;;;;;5111202;27;20198;-88
2023/07/21 03:25:10;;;;;;;1.20;1.10;;;24.50;52.50;;;;;;5104736;27;20264;-88
2023/07/21 03:27:38;;;;;;;1.10;1.00;;;24.50;52.50;;;;;;5100669;28;20178;-88
2023/07/21 03:30:08;;;;;;;1.20;1.10;;;24.40;52.50;;;;;;5112873;28;20301;-88
2023/07/21 03:32:34;;;;;;;1.00;1.00;;;24.40;52.40;;;;;;5097950;28;20480;-88
2023/07/21 03:35:04;;;;;;;1.20;1.10;;;24.40;52.40;;;;;;5104903;28;20634;-88
2023/07/21 03:37:30;;;;;;;1.40;1.07;;;24.40;52.40;;;;;;5100176;28;20272;-88
2023/07/21 03:39:57;;;;;;;1.43;1.00;;;24.40;52.80;;;;;;5104655;28;20721;-88
2023/07/21 03:42:23;;;;;;;1.30;1.10;;;24.40;52.40;;;;;;5101118;28;20217;-88
2023/07/21 03:44:52;;;;;;;1.20;1.10;;;24.40;52.40;;;;;;5099260;28;20237;-88
2023/07/21 03:47:19;;;;;;;1.10;1.00;;;24.40;52.40;;;;;;5101884;28;20412;-88
2023/07/21 03:49:46;;;;;;;1.00;1.00;;;24.40;52.40;;;;;;5109381;28;20184;-88
2023/07/21 03:52:13;;;;;;;1.20;1.10;;;24.40;52.40;;;;;;5105749;28;20653;-88
2023/07/21 03:54:39;;;;;;;2.47;1.10;;;24.40;52.40;;;;;;5101794;28;20202;-88
2023/07/21 03:57:04;;;;;;;1.20;1.10;;;24.30;52.40;;;;;;5105300;28;20209;-88
2023/07/21 03:59:31;;;;;;;2.07;1.20;;;24.40;52.50;;;;;;5108610;28;20205;-88
2023/07/21 04:01:57;;;;;;;1.43;1.20;;;24.40;52.50;;;;;;5104628;28;20205;-88
2023/07/21 04:04:22;;;;;;;2.30;1.20;;;24.30;52.50;;;;;;5105182;28;20175;-88
2023/07/21 04:06:48;;;;;;;1.20;1.10;;;24.30;52.50;;;;;;5102462;28;20185;-89
2023/07/21 04:09:13;;;;;;;1.17;1.07;;;24.30;52.50;;;;;;5109180;28;20449;-87
2023/07/21 04:11:40;;;;;;;1.10;1.00;;;24.30;52.50;;;;;;5100480;28;20212;-88
2023/07/21 04:14:06;;;;;;;1.43;1.00;;;24.30;52.50;;;;;;5101116;28;20209;-88
2023/07/21 04:16:32;;;;;;;1.23;1.13;;;24.30;52.50;;;;;;5112120;28;20540;-88
2023/07/21 04:18:58;;;;;;;1.57;1.00;;;24.30;52.50;;;;;;5095346;28;20192;-88
2023/07/21 04:21:24;;;;;;;1.20;1.10;;;24.30;52.50;;;;;;5107530;28;20297;-88
2023/07/21 04:23:50;;;;;;;2.03;1.20;;;24.30;52.50;;;;;;5097588;28;20175;-88
2023/07/21 04:26:16;;;;;;;1.17;1.10;;;24.30;52.50;;;;;;5099590;28;20213;-88
2023/07/21 04:28:42;;;;;;;1.33;1.23;;;24.30;52.40;;;;;;5098364;28;20201;-88
2023/07/21 04:31:09;;;;;;;1.83;1.03;;;24.30;52.50;;;;;;5098949;28;20277;-88
2023/07/21 04:33:35;;;;;;;1.10;1.00;;;24.30;52.50;;;;;;5094734;28;20182;-88
2023/07/21 04:36:04;;;;;;;1.30;1.20;;;24.30;52.50;;;;;;5098789;28;20471;-88
2023/07/21 04:38:31;;;;;;;1.90;1.20;;;24.30;52.50;;;;;;5104335;28;20181;-88
2023/07/21 04:40:57;;;;;;;1.27;1.10;;;24.30;52.50;;;;;;5108963;28;20179;-88
2023/07/21 04:43:23;;;;;;;1.37;1.03;;;24.30;52.50;;;;;;5104569;28;20206;-89
2023/07/21 04:45:49;;;;;;;1.13;1.03;;;24.30;52.80;;;;;;5103489;28;20167;-88
2023/07/21 04:48:14;;;;;;;2.70;1.10;;;24.30;52.50;;;;;;5100954;28;20175;-88
2023/07/21 04:50:42;;;;;;;1.23;1.13;;;24.30;52.50;;;;;;5104382;28;20175;-88
2023/07/21 04:53:09;;;;;;;1.60;1.10;;;24.30;52.50;;;;;;5100209;28;20183;-88
2023/07/21 04:55:35;;;;;;;1.60;1.30;;;24.30;52.40;;;;;;5102424;28;20276;-88
2023/07/21 04:58:01;;;;;;;1.57;1.30;;;24.30;52.40;;;;;;5098523;28;20521;-88
2023/07/21 05:00:39;;;;;;;1.57;1.30;;;24.30;52.40;;;;;;5108144;28;20174;-89
2023/07/21 05:03:04;;;;;;;1.50;1.10;;;24.30;52.40;;;;;;5107397;28;20214;-89
2023/07/21 05:05:32;;;;;;;1.30;1.20;;;24.30;52.40;;;;;;5102114;28;20227;-89
2023/07/21 05:07:59;;;;;;;1.20;1.10;;;24.30;52.40;;;;;;5102611;28;20170;-89
2023/07/21 05:10:25;;;;;;;1.30;1.20;;;24.30;52.30;;;;;;5101275;28;20227;-89
2023/07/21 05:12:51;;;;;;;1.20;1.10;;;24.40;52.30;;;;;;5103443;28;20178;-89
2023/07/21 05:15:17;;;;;;;1.30;1.13;;;24.40;52.20;;;;;;5102580;28;20238;-89
2023/07/21 05:17:42;;;;;;;1.30;1.20;;;24.40;52.20;;;;;;5099993;28;20178;-89
2023/07/21 05:20:11;;;;;;;1.10;1.07;;;24.40;52.20;;;;;;5100441;28;20296;-89
2023/07/21 05:22:39;;;;;;;1.27;1.17;;;24.40;52.20;;;;;;5099338;28;20275;-89
2023/07/21 05:25:05;;;;;;;1.90;1.17;;;24.40;52.20;;;;;;5098190;28;20183;-89
2023/07/21 05:27:31;;;;;;;1.80;1.13;;;24.50;52.10;;;;;;5102149;28;20170;-89
2023/07/21 05:30:00;;;;;;;0.90;0.90;;;24.50;52.10;;;;;;5100021;28;20227;-89
2023/07/21 05:32:25;;;;;;;1.13;1.03;;;24.50;52.10;;;;;;5101729;28;20190;-89
2023/07/21 05:34:51;;;;;;;1.17;1.07;;;24.50;52.10;;;;;;5097080;28;20430;-89
2023/07/21 05:37:17;;;;;;;1.30;1.20;;;24.50;52.00;;;;;;5101085;28;20174;-88
2023/07/21 05:39:43;;;;;;;1.30;1.20;;;24.50;52.00;;;;;;5101658;28;20182;-89
2023/07/21 05:42:08;;;;;;;2.30;1.20;;;24.50;52.00;;;;;;5095520;28;20363;-89
2023/07/21 05:44:34;;;;;;;1.47;1.20;;;24.50;52.00;;;;;;5098032;28;20181;-89
2023/07/21 05:47:00;;;;;;;1.10;1.10;;;24.50;52.00;;;;;;5095742;28;20209;-89
2023/07/21 05:49:26;;;;;;;1.30;1.10;;;24.50;52.40;;;;;;5097427;28;20181;-88
2023/07/21 05:51:52;;;;;;;1.23;1.10;;;24.50;52.00;;;;;;5095870;28;20174;-89
2023/07/21 05:54:18;;;;;;;1.30;1.10;;;24.50;52.00;;;;;;5098227;28;20205;-88
2023/07/21 05:56:44;;;;;;;1.90;1.30;;;24.50;52.00;;;;;;5097883;28;20439;-88
2023/07/21 05:59:11;;;;;;;1.20;1.10;;;24.40;52.10;;;;;;5096896;28;20575;-88
2023/07/21 06:01:37;;;;;;;2.63;1.20;;;24.50;52.10;;;;;;5102624;28;20351;-88
2023/07/21 06:04:06;;;;;;;1.20;1.10;;;24.50;52.10;;;;;;5099135;28;20420;-89
2023/07/21 06:06:32;;;;;;;2.00;1.30;;;24.50;52.10;;;;;;5098701;28;20201;-89
2023/07/21 06:08:58;;;;;;;1.60;1.20;;;24.50;52.10;;;;;;5097471;28;20186;-89
2023/07/21 06:11:26;;;;;;;1.30;1.20;;;24.50;52.10;;;;;;5098661;28;20270;-89
2023/07/21 06:13:51;;;;;;;2.03;1.27;;;24.60;52.10;;;;;;5096171;28;20198;-88
2023/07/21 06:16:17;;;;;;;1.40;1.30;;;24.60;52.10;;;;;;5099803;28;20737;-88
2023/07/21 06:18:43;;;;;;;2.50;1.40;;;24.60;52.10;;;;;;5098372;28;20253;-88
2023/07/21 06:21:12;;;;;;;2.33;1.60;;;24.60;52.10;;;;;;5095726;28;20339;-88
2023/07/21 06:23:38;;;;;;;2.23;1.47;;;24.60;52.00;;;;;;5091895;28;20447;-88
2023/07/21 06:26:04;;;;;;;1.80;1.40;;;24.70;51.90;;;;;;5097783;28;20175;-88
2023/07/21 06:28:30;;;;;;;2.80;1.53;;;24.80;51.90;;;;;;5099814;28;20367;-88
2023/07/21 06:30:56;;;;;;;1.90;1.50;;;24.80;51.80;;;;;;5095145;28;20420;-88
2023/07/21 06:33:22;;;;;;;1.53;1.40;;;24.80;51.90;;;;;;5099789;28;20769;-88
2023/07/21 06:35:49;;;;;;;3.40;1.80;;;24.90;51.70;;;;;;5098497;28;20251;-88
2023/07/21 06:38:14;;;;;;;3.83;1.70;;;25.00;51.70;;;;;;5095634;28;20182;-89
2023/07/21 06:40:40;;;;;;;2.57;1.57;;;25.00;51.50;;;;;;5096112;28;20186;-89
2023/07/21 06:43:06;;;;;;;3.77;1.67;;;25.00;51.70;;;;;;5092827;28;20580;-88
2023/07/21 06:45:33;;;;;;;5.03;1.50;;;25.00;51.70;;;;;;5097682;28;20447;-89
2023/07/21 06:47:59;;;;;;;1.67;1.57;;;25.10;51.60;;;;;;5096116;28;20195;-88
2023/07/21 06:50:25;;;;;;;2.33;1.70;;;25.00;51.60;;;;;;5101073;28;20179;-88
2023/07/21 06:52:51;;;;;;;1.70;1.60;;;25.00;51.70;;;;;;5093249;28;20194;-88
2023/07/21 06:55:17;;;;;;;1.70;1.30;;;25.00;51.50;;;;;;5095734;28;20194;-88
2023/07/21 06:57:43;;;;;;;2.13;1.43;;;25.00;51.60;;;;;;5102728;28;20235;-88
2023/07/21 07:00:12;;;;;;;1.70;1.57;;;25.00;51.80;;;;;;5099833;28;20182;-88
2023/07/21 07:02:38;;;;;;;2.13;1.53;;;25.00;51.90;;;;;;5101460;28;20319;-87
2023/07/21 07:05:04;;;;;;;6.10;1.80;;;25.10;51.90;;;;;;5096173;28;20190;-88
2023/07/21 07:07:30;;;;;;;2.63;1.90;;;25.10;51.90;;;;;;5099583;28;20189;-88
2023/07/21 07:09:55;;;;;;;1.90;1.70;;;25.20;51.90;;;;;;5095983;28;20571;-88
2023/07/21 07:12:21;;;;;;;1.73;1.47;;;25.20;51.90;;;;;;5094256;28;20255;-88
2023/07/21 07:14:47;;;;;;;2.20;1.60;;;25.20;51.90;;;;;;5099587;28;20475;-89
2023/07/21 07:17:13;;;;;;;2.73;1.60;;;25.20;51.90;;;;;;5098545;28;20273;-88
2023/07/21 07:19:39;;;;;;;2.47;1.60;;;25.20;51.90;;;;;;5091269;28;20311;-88
2023/07/21 07:22:08;;;;;;;2.70;1.73;;;25.30;51.90;;;;;;5100612;28;20194;-88
2023/07/21 07:24:34;;;;;;;1.93;1.60;;;25.30;52.30;;;;;;5098321;28;20301;-88
2023/07/21 07:27:00;;;;;;;3.17;1.60;;;25.30;51.90;;;;;;5097374;28;20167;-88
2023/07/21 07:29:26;;;;;;;2.30;1.67;;;25.40;52.00;;;;;;5099799;28;20213;-88
2023/07/21 07:31:52;;;;;;;;;;;25.40;51.90;;;;;;5096278;28;20175;-88
2023/07/21 07:34:18;;;;;;;;;;;25.40;51.80;;;;;;5103558;28;19919;-88
2023/07/21 07:36:43;;;;;;;;;;;25.50;51.90;;;;;;5098995;28;19931;-88
2023/07/21 07:39:11;;;;;;;;;;;25.50;51.80;;;;;;5100504;28;20205;-88
2023/07/21 07:41:37;;;;;;;;;;;25.50;51.90;;;;;;5099763;28;20015;-88
2023/07/21 07:44:03;;;;;;;;;;;25.60;51.80;;;;;;5109204;28;19903;-88
2023/07/21 07:46:29;;;;;;;;;;;25.60;51.80;;;;;;5097053;28;20281;-89
2023/07/21 07:48:54;;;;;;;;;;;25.70;51.70;;;;;;5096845;28;19905;-89
2023/07/21 07:51:20;;;;;;;1.70;1.60;;;25.70;51.80;;;;;;5098754;28;19904;-89
2023/07/21 07:53:45;;;;;;;;;;;25.80;51.70;;;;;;5098627;28;19908;-89
2023/07/21 07:56:17;;;;;;;;;;;25.80;51.60;;;;;;5097741;28;19907;-89
2023/07/21 07:58:42;;;;;;;3.00;1.70;;;25.80;51.50;;;;;;5095061;28;19907;-89
2023/07/21 08:01:08;;;;;;;2.17;1.53;;;26.00;51.50;;;;;;5097192;28;20189;-89
2023/07/21 08:03:33;;;;;;;2.37;1.67;;;26.10;51.40;;;;;;5097405;28;20275;-89
2023/07/21 08:05:59;;;;;;;2.37;1.60;;;26.10;51.30;;;;;;5098413;28;20205;-89
2023/07/21 08:08:26;;;;;;;3.20;1.40;;;26.20;51.20;;;;;;5094553;28;20472;-89
2023/07/21 08:10:52;;;;;;;1.70;1.60;;;26.40;51.20;;;;;;5093821;28;20341;-90
2023/07/21 08:13:17;;;;;;;1.80;1.50;;;26.40;51.00;;;;;;5096612;28;20540;-89
2023/07/21 08:15:44;;;;;;;2.55;1.52;;;26.50;51.00;;;;;;5095321;28;20286;-89
2023/07/21 08:18:14;;;;;;;2.38;1.50;;;26.60;50.90;;;;;;5099037;28;20183;-89
2023/07/21 08:20:40;;;;;;;1.63;1.33;;;26.70;50.80;;;;;;5093026;28;20572;-89
2023/07/21 08:23:07;;;;;;;2.35;1.60;;;26.80;50.70;;;;;;5093012;28;20514;-89
2023/07/21 08:25:33;;;;;;;1.95;1.48;;;26.90;50.60;;;;;;5096792;28;20174;-89
2023/07/21 08:28:00;;;;;;;2.28;1.60;;;27.10;50.50;;;;;;5075915;28;20204;-90
2023/07/21 08:30:25;;;;;;;2.95;1.58;;;27.10;50.30;;;;;;5093997;28;20673;-89
2023/07/21 08:32:51;;;;;;;2.45;1.70;;;27.20;50.20;;;;;;5096097;28;20213;-89
2023/07/21 08:35:17;;;;;;;2.15;1.60;;;27.30;50.20;;;;;;5091792;28;20189;-89
2023/07/21 08:37:42;;;;;;;1.63;1.52;;;27.40;50.10;;;;;;5095057;28;20253;-89
2023/07/21 08:40:09;;;;;;;1.58;1.48;;;27.40;50.10;;;;;;5096288;28;20179;-89
2023/07/21 08:42:36;;;;;;;1.88;1.58;;;27.40;50.00;;;;;;5091747;28;20209;-89
2023/07/21 08:45:04;;;;;;;1.60;1.40;;;27.40;50.00;;;;;;5092360;28;20484;-87
2023/07/21 08:47:30;;;;;;;1.42;1.30;;;27.40;50.00;;;;;;5092804;28;20178;-88
2023/07/21 08:49:57;;;;;;;1.60;1.35;;;27.40;50.00;;;;;;5092090;28;20189;-87
2023/07/21 08:52:25;;;;;;;1.77;1.30;;;27.40;50.00;;;;;;5091910;28;20260;-88
2023/07/21 08:54:50;;;;;;;1.52;1.27;;;27.40;50.00;;;;;;5093751;28;20370;-88
2023/07/21 08:57:17;;;;;;;1.70;1.60;;;27.40;50.10;;;;;;5093879;28;20500;-87
2023/07/21 08:59:43;;;;;;;1.85;1.70;;;27.40;50.10;;;;;;5092318;28;20190;-87
2023/07/21 09:02:09;;;;;;;1.70;1.33;;;27.40;50.20;;;;;;5093977;28;20676;-87
2023/07/21 09:04:34;;;;;;;1.50;1.40;;;27.40;50.10;;;;;;5095468;28;20185;-88
2023/07/21 09:07:02;;;;;;;1.80;1.50;;;27.40;50.10;;;;;;5097766;28;20199;-87
2023/07/21 09:09:30;;;;;;;1.63;1.40;;;27.50;50.10;;;;;;5100440;28;20182;-87
2023/07/21 09:12:01;;;;;;;2.00;1.50;;;27.50;50.10;;;;;;5098203;28;20186;-88
2023/07/21 09:14:41;;;;;;;3.13;1.55;;;27.50;50.10;;;;;;5094940;28;20353;-88
2023/07/21 09:17:13;;;;;;;2.08;1.65;;;27.50;50.10;;;;;;5094692;28;20189;-88
2023/07/21 09:19:44;;;;;;;2.55;1.85;;;27.50;50.10;;;;;;5090485;28;20636;-88
2023/07/21 09:22:11;;;;;;;2.22;1.90;;;27.50;50.10;;;;;;5090666;28;20202;-88
2023/07/21 09:24:51;;;;;;;4.05;1.70;;;27.50;50.10;;;;;;5092641;28;20201;-88
2023/07/21 09:27:18;;;;;;;2.75;1.98;;;27.50;50.10;;;;;;5090785;28;20178;-88
2023/07/21 09:29:44;;;;;;;3.40;1.77;;;27.50;50.10;;;;;;5090438;28;20170;-88
2023/07/21 09:32:21;;;;;;;4.47;1.83;;;27.50;50.10;;;;;;5097856;28;20185;-87
2023/07/21 09:35:04;;;;;;;3.17;1.92;;;27.50;50.10;;;;;;5091905;28;20212;-88
2023/07/21 09:37:34;;;;;;;2.22;1.67;;;27.50;50.10;;;;;;5092605;28;20209;-88
2023/07/21 09:40:05;;;;;;;4.07;1.77;;;27.60;50.10;;;;;;5095016;28;20181;-88
2023/07/21 09:42:32;;;;;;;5.38;1.90;;;27.70;50.10;;;;;;5093747;28;20211;-88
2023/07/21 09:44:58;;;;;;;3.47;1.80;;;27.70;50.00;;;;;;5096690;28;20181;-88
2023/07/21 09:47:24;;;;;;;4.65;1.90;;;27.70;50.00;;;;;;5093674;28;20206;-88
2023/07/21 09:49:53;;;;;;;2.78;1.80;;;27.80;50.00;;;;;;5091246;28;20245;-88
2023/07/21 09:52:20;;;;;;;2.72;1.73;;;27.80;50.00;;;;;;5093267;28;20614;-87
2023/07/21 09:54:59;;;;;;;3.20;1.80;;;27.80;50.00;;;;;;5092122;28;20187;-88
2023/07/21 09:57:27;;;;;;;2.60;1.67;;;27.80;50.00;;;;;;5100217;28;20182;-87
2023/07/21 09:59:56;;;;;;;3.72;1.80;;;27.70;50.00;;;;;;5093586;28;20210;-88
2023/07/21 10:02:22;;;;;;;2.75;1.67;;;27.70;50.40;;;;;;5097725;28;20411;-88
2023/07/21 10:04:48;;;;;;;3.25;2.13;;;27.70;50.10;;;;;;5091662;28;20286;-88
2023/07/21 10:07:15;;;;;;;4.00;1.80;;;27.70;50.10;;;;;;5093511;28;20170;-88
2023/07/21 10:09:44;;;;;;;2.67;1.70;;;27.70;50.10;;;;;;5095248;28;20182;-88
2023/07/21 10:12:17;;;;;;;2.33;1.63;;;27.70;50.10;;;;;;5093082;28;20209;-88
2023/07/21 10:14:45;;;;;;;2.97;1.60;;;27.70;50.10;;;;;;5096417;28;20178;-88
2023/07/21 10:17:21;;;;;;;2.45;1.80;;;27.80;50.10;;;;;;5097610;28;20174;-88
2023/07/21 10:19:47;;;;;;;2.72;1.90;;;27.80;50.00;;;;;;5096452;28;20202;-88
2023/07/21 10:22:24;;;;;;;2.95;1.70;;;27.80;50.00;;;;;;5095229;28;20412;-88
2023/07/21 10:24:54;;;;;;;2.85;2.05;;;27.90;50.00;;;;;;5095225;28;20221;-88
2023/07/21 10:27:23;;;;;;;3.38;1.85;;;27.90;49.90;;;;;;5091631;28;20367;-88
2023/07/21 10:30:15;;;;;;;2.63;1.83;;;28.00;49.90;;;;;;5094849;28;20239;-88
2023/07/21 10:32:44;;;;;;;4.07;2.00;;;28.00;49.80;;;;;;5094541;28;20255;-88
2023/07/21 10:35:38;;;;;;;3.95;1.88;;;28.00;49.80;;;;;;5097053;28;20464;-89
2023/07/21 10:38:13;;;;;;;3.28;1.73;;;28.00;49.80;;;;;;5101768;28;20331;-88
2023/07/21 10:40:43;;;;;;;3.63;2.00;;;28.00;49.80;;;;;;5094482;28;20232;-88
2023/07/21 10:43:09;;;;;;;2.75;1.77;;;28.00;49.90;;;;;;5093015;28;20445;-88
2023/07/21 10:45:35;;;;;;;2.72;1.77;;;28.00;49.80;;;;;;5093950;28;20439;-89
2023/07/21 10:48:15;;;;;;;2.42;1.60;;;28.00;49.80;;;;;;5097893;28;20170;-89
2023/07/21 10:50:46;;;;;;;2.75;1.80;;;28.00;49.80;;;;;;5093784;28;20243;-88
2023/07/21 10:53:12;;;;;;;4.03;1.88;;;28.00;49.80;;;;;;5104252;28;20544;-88
2023/07/21 10:55:37;;;;;;;2.63;1.80;;;28.00;49.80;;;;;;5091185;28;20190;-88
2023/07/21 10:58:05;;;;;;;2.78;1.83;;;28.00;49.90;;;;;;5097816;28;20500;-89
2023/07/21 11:00:41;;;;;;;2.85;1.92;;;27.90;49.80;;;;;;5095155;28;20238;-88
2023/07/21 11:03:07;;;;;;;2.70;1.70;;;27.90;49.90;;;;;;5101940;28;20472;-88
2023/07/21 11:05:36;;;;;;;2.80;1.60;;;28.00;50.00;;;;;;5095026;28;20193;-88
2023/07/21 11:08:02;;;;;;;3.42;1.63;;;27.90;49.90;;;;;;5093708;28;20212;-88
2023/07/21 11:10:34;;;;;;;2.00;1.67;;;27.90;49.90;;;;;;5096474;28;20174;-88
2023/07/21 11:13:01;;;;;;;2.55;1.92;;;27.90;49.90;;;;;;5096510;28;20191;-88
2023/07/21 11:15:27;;;;;;;1.70;1.60;;;27.90;50.00;;;;;;5094935;28;20179;-88
2023/07/21 11:18:00;;;;;;;2.88;1.90;;;27.90;49.90;;;;;;5094763;28;20900;-88
2023/07/21 11:20:26;;;;;;;2.25;1.88;;;28.00;49.90;;;;;;5094250;28;20189;-88
2023/07/21 11:22:52;;;;;;;2.42;1.67;;;28.00;49.80;;;;;;5097482;28;20214;-88
2023/07/21 11:25:18;;;;;;;2.20;1.70;;;28.00;49.80;;;;;;5092734;28;20174;-90
2023/07/21 11:27:45;;;;;;;1.48;1.38;;;28.00;49.80;;;;;;5094325;28;20193;-89
2023/07/21 11:30:17;;;;;;;3.00;1.90;;;28.00;49.80;;;;;;5096185;28;20174;-89
2023/07/21 11:32:42;;;;;;;1.98;1.77;;;28.00;49.80;;;;;;5095340;28;20201;-88
2023/07/21 11:35:08;;;;;;;2.03;1.63;;;28.10;49.80;;;;;;5094989;28;20190;-89
2023/07/21 11:37:44;;;;;;;1.65;1.55;;;28.10;49.70;;;;;;5092449;28;20179;-88
2023/07/21 11:40:15;;;;;;;1.80;1.70;;;28.10;49.80;;;;;;5091963;28;20409;-88
2023/07/21 11:42:45;;;;;;;2.35;1.80;;;28.20;49.80;;;;;;5092141;28;20470;-89
2023/07/21 11:45:30;;;;;;;1.83;1.42;;;28.20;49.80;;;;;;5095350;28;20557;-88
2023/07/21 11:47:56;;;;;;;2.08;1.55;;;28.20;49.80;;;;;;5094879;28;20269;-89
2023/07/21 11:50:23;;;;;;;2.05;1.70;;;28.20;49.80;;;;;;5096516;28;20209;-89
2023/07/21 11:52:49;;;;;;;1.70;1.42;;;28.20;49.70;;;;;;5094086;28;20178;-91
2023/07/21 11:55:15;;;;;;;3.58;1.60;;;28.20;49.80;;;;;;5093807;28;20419;-91
2023/07/21 11:57:40;;;;;;;1.73;1.63;;;28.20;49.80;;;;;;5096896;28;20174;-91
2023/07/21 12:00:11;;;;;;;2.20;1.52;;;28.20;49.80;;;;;;5098247;28;20182;-91
2023/07/21 12:02:37;;;;;;;1.87;1.60;;;28.20;49.90;;;;;;5093681;28;20497;-90
2023/07/21 12:05:04;;;;;;;2.53;1.52;;;28.20;49.90;;;;;;5101837;28;20360;-91
2023/07/21 12:07:30;;;;;;;1.52;1.42;;;28.10;49.80;;;;;;5094119;28;20190;-91
2023/07/21 12:09:55;;;;;;;1.45;1.35;;;28.20;49.90;;;;;;5095047;28;20179;-91
2023/07/21 12:12:21;;;;;;;1.90;1.57;;;28.20;49.90;;;;;;5092094;28;20187;-91
2023/07/21 12:14:47;;;;;;;1.85;1.65;;;28.20;49.90;;;;;;5079372;28;20251;-91
2023/07/21 12:17:15;;;;;;;2.45;1.63;;;28.20;49.90;;;;;;5095122;28;20182;-91
2023/07/21 12:19:41;;;;;;;1.75;1.50;;;28.20;50.00;;;;;;5092507;28;20623;-90
2023/07/21 12:22:07;;;;;;;2.22;1.80;;;28.20;49.80;;;;;;5092958;28;20294;-91
2023/07/21 12:24:33;;;;;;;1.77;1.50;;;28.20;49.80;;;;;;5093281;28;20220;-90
2023/07/21 12:26:58;;;;;;;2.00;1.70;;;28.20;49.80;;;;;;5095204;28;20227;-91
2023/07/21 12:29:24;;;;;;;2.80;1.75;;;28.30;49.80;;;;;;5091851;28;20226;-91
2023/07/21 12:31:49;;;;;;;1.60;1.50;;;28.30;49.80;;;;;;5090346;28;20332;-90
2023/07/21 12:34:15;;;;;;;1.70;1.50;;;28.30;49.90;;;;;;5094450;28;20288;-90
2023/07/21 12:36:41;;;;;;;1.75;1.48;;;28.30;49.90;;;;;;5091403;28;20193;-90
2023/07/21 12:39:10;;;;;;;1.80;1.60;;;28.20;49.80;;;;;;5095249;28;20194;-92
2023/07/21 12:41:36;;;;;;;1.77;1.45;;;28.30;49.90;;;;;;5091464;28;20322;-91
2023/07/21 12:44:02;;;;;;;1.50;1.40;;;28.30;49.80;;;;;;5090019;28;20179;-91
2023/07/21 12:46:28;;;;;;;1.70;1.60;;;28.30;49.80;;;;;;5100140;28;20240;-91
2023/07/21 12:48:54;;;;;;;1.67;1.50;;;28.30;49.90;;;;;;5092803;28;20310;-91
2023/07/21 12:51:20;;;;;;;1.50;1.40;;;28.20;49.80;;;;;;5096048;28;20382;-91